Time;durP1;ratioP1;P1;durP2;ratioP2;P2;SDS_P1;SDS_P2;PMS_P1;PMS_P2;Temp;Humidity;BMP_temperature;BMP_pressure;BME280_temperature;BME280_humidity;BME280_pressure;Samples;Min_cycle;Max_cycle;Signal;HPM_P1;HPM_P2
2021/10/28 00:13:50;;;;;;;0.28;0.28;;;13.30;99.90;;;;;;5082565;28;20066;-71
2021/10/28 00:16:22;;;;;;;0.55;0.43;;;13.20;99.90;;;;;;5081128;28;20028;-71
2021/10/28 00:18:50;;;;;;;0.65;0.65;;;13.20;99.90;;;;;;5079234;28;20111;-71
2021/10/28 00:21:16;;;;;;;1.10;0.98;;;13.20;99.90;;;;;;5076283;28;20100;-71
2021/10/28 00:23:44;;;;;;;2.83;0.80;;;13.10;99.90;;;;;;5079018;28;20449;-71
2021/10/28 00:26:11;;;;;;;1.80;1.27;;;13.10;99.90;;;;;;5083019;28;20048;-72
2021/10/28 00:28:37;;;;;;;0.20;0.20;;;13.00;99.90;;;;;;5085838;28;20025;-72
2021/10/28 00:31:04;;;;;;;0.43;0.35;;;13.00;99.90;;;;;;5076915;28;20073;-70
2021/10/28 00:33:31;;;;;;;0.88;0.60;;;13.00;99.90;;;;;;5080313;28;20028;-71
2021/10/28 00:35:59;;;;;;;1.25;0.95;;;13.00;99.90;;;;;;5084104;28;20036;-71
2021/10/28 00:38:24;;;;;;;1.05;0.63;;;13.00;99.90;;;;;;5076795;28;20103;-71
2021/10/28 00:40:50;;;;;;;0.30;0.30;;;13.00;99.90;;;;;;5083047;28;20041;-71
2021/10/28 00:43:16;;;;;;;0.73;0.73;;;12.90;99.90;;;;;;5080536;28;20383;-71
2021/10/28 00:45:41;;;;;;;0.47;0.47;;;12.90;99.90;;;;;;5083989;28;20051;-72
2021/10/28 00:48:07;;;;;;;0.10;0.10;;;12.80;99.90;;;;;;5080118;28;20035;-72
2021/10/28 00:50:34;;;;;;;0.65;0.63;;;12.80;99.90;;;;;;5086687;28;20398;-72
2021/10/28 00:53:00;;;;;;;0.55;0.55;;;12.80;99.90;;;;;;5079528;28;20031;-72
2021/10/28 00:55:26;;;;;;;0.32;0.20;;;12.70;99.90;;;;;;5073860;28;20028;-71
2021/10/28 00:57:53;;;;;;;0.22;0.22;;;12.70;99.90;;;;;;5079153;28;20596;-71
2021/10/28 01:00:18;;;;;;;0.55;0.52;;;12.60;99.90;;;;;;5077479;28;20024;-71
2021/10/28 01:02:44;;;;;;;0.75;0.45;;;12.60;99.90;;;;;;5075054;28;20155;-72
2021/10/28 01:05:09;;;;;;;0.55;0.52;;;12.60;99.90;;;;;;5078687;28;20386;-72
2021/10/28 01:07:35;;;;;;;0.68;0.68;;;12.60;99.90;;;;;;5079339;28;20481;-72
2021/10/28 01:10:01;;;;;;;0.85;0.60;;;12.60;99.90;;;;;;5079072;28;20032;-71
2021/10/28 01:12:27;;;;;;;0.73;0.73;;;12.50;99.90;;;;;;5077644;28;20090;-71
2021/10/28 01:14:52;;;;;;;3.17;0.93;;;12.50;99.90;;;;;;5078958;28;20028;-71
2021/10/28 01:17:18;;;;;;;0.15;0.15;;;12.40;99.90;;;;;;5078230;28;20475;-71
2021/10/28 01:19:47;;;;;;;0.35;0.35;;;12.40;99.90;;;;;;5078624;28;20058;-70
2021/10/28 01:22:13;;;;;;;0.75;0.75;;;12.40;99.90;;;;;;5072925;28;20024;-72
2021/10/28 01:24:39;;;;;;;1.35;0.65;;;12.40;99.90;;;;;;5068800;28;20024;-72
2021/10/28 01:27:08;;;;;;;1.25;0.73;;;12.40;99.90;;;;;;5078248;28;20124;-71
2021/10/28 01:29:34;;;;;;;0.77;0.77;;;12.40;99.90;;;;;;5076339;28;20036;-71
2021/10/28 01:32:00;;;;;;;0.52;0.52;;;12.40;99.90;;;;;;5082992;28;20493;-71
2021/10/28 01:34:25;;;;;;;0.45;0.45;;;12.40;99.90;;;;;;5079165;28;20528;-72
2021/10/28 01:36:51;;;;;;;0.63;0.63;;;12.40;99.90;;;;;;5071314;28;20028;-71
2021/10/28 01:39:21;;;;;;;0.10;0.10;;;12.40;99.90;;;;;;5078492;28;20028;-72
2021/10/28 01:41:47;;;;;;;0.28;0.28;;;12.50;99.90;;;;;;5084979;28;20089;-71
2021/10/28 01:44:12;;;;;;;0.10;0.10;;;12.50;99.90;;;;;;5081370;28;20028;-71
2021/10/28 01:46:38;;;;;;;0.32;0.32;;;12.40;99.90;;;;;;5080776;28;20024;-72
2021/10/28 01:49:03;;;;;;;1.75;0.93;;;12.40;99.90;;;;;;5074361;28;20021;-72
2021/10/28 01:51:29;;;;;;;0.10;0.10;;;12.50;99.90;;;;;;5082824;28;20093;-71
2021/10/28 01:53:54;;;;;;;0.10;0.10;;;12.50;99.90;;;;;;5083357;28;20028;-72
2021/10/28 01:56:20;;;;;;;2.42;1.27;;;12.50;99.90;;;;;;5083057;28;20413;-71
2021/10/28 01:58:49;;;;;;;0.57;0.57;;;12.50;99.90;;;;;;5082665;28;20032;-72
2021/10/28 02:01:14;;;;;;;1.48;0.98;;;12.50;99.90;;;;;;5083561;28;20028;-72
2021/10/28 02:03:40;;;;;;;0.10;0.10;;;12.50;99.90;;;;;;5087120;28;20043;-71
2021/10/28 02:06:05;;;;;;;0.85;0.85;;;12.40;99.90;;;;;;5080657;28;20028;-71
2021/10/28 02:08:31;;;;;;;0.15;0.13;;;12.40;99.90;;;;;;5081460;28;20698;-71
2021/10/28 02:10:57;;;;;;;0.28;0.28;;;12.40;99.90;;;;;;5075557;28;20135;-72
2021/10/28 02:13:22;;;;;;;0.38;0.38;;;12.30;99.90;;;;;;5081460;28;20025;-71
2021/10/28 02:15:48;;;;;;;0.10;0.10;;;12.30;99.90;;;;;;5082695;28;20033;-71
2021/10/28 02:18:13;;;;;;;1.02;0.50;;;12.20;99.90;;;;;;5078639;28;20475;-71
2021/10/28 02:20:39;;;;;;;0.32;0.32;;;12.20;99.90;;;;;;5079857;28;20402;-71
2021/10/28 02:23:06;;;;;;;0.10;0.10;;;12.20;99.90;;;;;;5079933;28;20060;-71
2021/10/28 02:25:32;;;;;;;0.05;0.05;;;12.10;99.90;;;;;;5087675;28;20032;-71
2021/10/28 02:27:58;;;;;;;0.15;0.15;;;12.10;99.90;;;;;;5077970;28;20025;-71
2021/10/28 02:30:24;;;;;;;0.10;0.10;;;12.00;99.90;;;;;;5079974;28;20069;-71
2021/10/28 02:32:50;;;;;;;0.90;0.43;;;11.90;99.90;;;;;;5072585;28;20032;-71
2021/10/28 02:35:16;;;;;;;0.40;0.35;;;11.90;99.90;;;;;;5086720;28;20024;-71
2021/10/28 02:37:42;;;;;;;0.90;0.50;;;11.80;99.90;;;;;;5080496;28;20021;-71
2021/10/28 02:40:08;;;;;;;0.32;0.32;;;11.70;99.90;;;;;;5084451;28;20486;-71
2021/10/28 02:42:34;;;;;;;0.45;0.40;;;11.60;99.90;;;;;;5077014;28;20024;-72
2021/10/28 02:45:00;;;;;;;0.13;0.13;;;11.60;99.90;;;;;;5075137;28;20041;-71
2021/10/28 02:47:25;;;;;;;0.73;0.60;;;11.50;99.90;;;;;;5081561;28;20027;-71
2021/10/28 02:49:51;;;;;;;0.20;0.20;;;11.40;99.90;;;;;;5067120;28;20016;-71
2021/10/28 02:52:17;;;;;;;0.43;0.43;;;11.40;99.90;;;;;;5077142;28;20124;-71
2021/10/28 02:54:42;;;;;;;1.83;0.95;;;11.30;99.90;;;;;;5081178;28;20032;-72
2021/10/28 02:57:08;;;;;;;0.38;0.38;;;11.30;99.90;;;;;;5077630;28;20035;-72
2021/10/28 02:59:34;;;;;;;0.10;0.10;;;11.20;99.90;;;;;;5079454;28;20029;-71
2021/10/28 03:01:59;;;;;;;1.08;0.22;;;11.20;99.90;;;;;;5083416;28;20025;-71
2021/10/28 03:04:25;;;;;;;0.30;0.30;;;11.20;99.90;;;;;;5088793;28;20085;-71
2021/10/28 03:06:52;;;;;;;0.13;0.13;;;11.10;99.90;;;;;;5083303;28;20111;-71
2021/10/28 03:09:23;;;;;;;0.90;0.63;;;11.00;99.90;;;;;;5081442;28;20490;-71
2021/10/28 03:11:51;;;;;;;0.30;0.30;;;11.00;99.90;;;;;;5078701;28;20052;-71
2021/10/28 03:14:21;;;;;;;0.63;0.63;;;11.00;99.90;;;;;;5084505;28;20036;-70
2021/10/28 03:16:58;;;;;;;0.43;0.40;;;11.00;99.90;;;;;;5077287;28;20365;-71
2021/10/28 03:27:37;;;;;;;1.27;0.95;;;11.00;99.90;;;;;;5082473;28;20020;-71
2021/10/28 03:30:03;;;;;;;1.05;0.95;;;10.90;99.90;;;;;;5079668;28;20344;-71
2021/10/28 03:32:29;;;;;;;0.55;0.55;;;10.90;99.90;;;;;;5083471;28;20467;-71
2021/10/28 03:34:55;;;;;;;0.38;0.38;;;10.90;99.90;;;;;;5080556;28;20058;-72
2021/10/28 03:37:27;;;;;;;3.00;1.10;;;10.90;99.90;;;;;;5082107;28;20031;-72
2021/10/28 03:53:46;;;;;;;0.40;0.40;;;10.80;99.90;;;;;;5083673;28;20036;-72
2021/10/28 04:04:18;;;;;;;0.68;0.50;;;10.80;99.90;;;;;;5080143;28;20036;-71
2021/10/28 04:17:50;;;;;;;2.03;0.98;;;10.80;99.90;;;;;;5076257;28;20034;-72
2021/10/28 04:20:42;;;;;;;1.65;0.70;;;10.70;99.90;;;;;;5085754;28;20529;-71
2021/10/28 04:31:26;;;;;;;0.55;0.55;;;10.60;99.90;;;;;;5080033;28;20153;-73
2021/10/28 04:33:52;;;;;;;0.27;0.27;;;10.60;99.90;;;;;;5073824;28;20024;-72
2021/10/28 04:36:17;;;;;;;0.43;0.43;;;10.50;99.90;;;;;;5075093;28;20146;-72
2021/10/28 04:38:43;;;;;;;2.53;1.30;;;10.60;99.90;;;;;;5079614;28;20025;-72
2021/10/28 04:41:09;;;;;;;0.70;0.70;;;10.50;99.90;;;;;;5078861;28;20032;-72
2021/10/28 04:43:34;;;;;;;1.60;0.65;;;10.50;99.90;;;;;;5081527;28;20474;-72
2021/10/28 04:46:00;;;;;;;2.10;0.95;;;10.50;99.90;;;;;;5079191;28;20107;-73
2021/10/28 04:48:25;;;;;;;0.45;0.45;;;10.50;99.90;;;;;;5078562;28;20024;-72
2021/10/28 04:50:51;;;;;;;0.50;0.50;;;10.50;99.90;;;;;;5064341;28;20035;-72
2021/10/28 04:53:17;;;;;;;0.20;0.20;;;10.40;99.90;;;;;;5084662;28;20060;-73
2021/10/28 04:55:42;;;;;;;0.10;0.10;;;10.40;99.90;;;;;;5079201;28;20114;-72
2021/10/28 04:58:08;;;;;;;0.35;0.35;;;10.40;99.90;;;;;;5072508;28;20028;-73
2021/10/28 05:00:33;;;;;;;0.20;0.20;;;10.40;99.90;;;;;;5076944;28;20046;-72
2021/10/28 05:02:59;;;;;;;0.43;0.43;;;10.30;99.90;;;;;;5070759;28;20515;-72
2021/10/28 05:05:24;;;;;;;0.13;0.13;;;10.30;99.90;;;;;;5079261;28;20013;-72
2021/10/28 05:07:50;;;;;;;0.45;0.38;;;10.30;99.90;;;;;;5080812;28;20028;-72
2021/10/28 05:10:15;;;;;;;0.98;0.73;;;10.20;99.90;;;;;;5082995;28;20398;-72
2021/10/28 05:12:41;;;;;;;0.82;0.82;;;10.20;99.90;;;;;;5077319;28;20028;-72
2021/10/28 05:15:07;;;;;;;0.15;0.15;;;10.20;99.90;;;;;;5084873;28;20023;-72
2021/10/28 05:17:33;;;;;;;3.05;1.70;;;10.10;99.90;;;;;;5085616;28;20023;-72
2021/10/28 05:19:58;;;;;;;0.28;0.28;;;10.10;99.90;;;;;;5083160;28;20024;-72
2021/10/28 05:22:24;;;;;;;0.60;0.60;;;10.10;99.90;;;;;;5081483;28;20028;-72
2021/10/28 05:24:49;;;;;;;0.65;0.65;;;10.10;99.90;;;;;;5084747;28;20594;-72
2021/10/28 05:27:15;;;;;;;1.77;1.45;;;10.00;99.90;;;;;;5082509;28;20589;-72
2021/10/28 05:29:41;;;;;;;0.68;0.68;;;10.00;99.90;;;;;;5083331;28;20039;-73
2021/10/28 05:32:07;;;;;;;1.42;0.63;;;10.00;99.90;;;;;;5083176;28;20537;-72
2021/10/28 05:34:32;;;;;;;0.17;0.17;;;10.00;99.90;;;;;;5086638;28;20020;-72
2021/10/28 05:36:58;;;;;;;0.30;0.30;;;9.90;99.90;;;;;;5084212;28;20040;-71
2021/10/28 05:39:23;;;;;;;0.00;0.00;;;9.90;99.90;;;;;;5081454;28;20606;-71
2021/10/28 05:41:49;;;;;;;0.50;0.50;;;9.80;99.90;;;;;;5078606;28;20031;-71
2021/10/28 05:44:15;;;;;;;0.13;0.13;;;9.80;99.90;;;;;;5082923;28;20036;-72
2021/10/28 05:46:40;;;;;;;1.10;1.08;;;9.70;99.90;;;;;;5080894;28;20020;-73
2021/10/28 05:49:06;;;;;;;0.28;0.28;;;9.70;99.90;;;;;;5089176;28;20414;-74
2021/10/28 05:51:31;;;;;;;0.98;0.57;;;9.70;99.90;;;;;;5088013;28;20024;-74
2021/10/28 05:53:57;;;;;;;0.20;0.20;;;9.60;99.90;;;;;;5078966;28;20036;-73
2021/10/28 05:56:23;;;;;;;0.93;0.93;;;9.60;99.90;;;;;;5074682;28;20020;-74
2021/10/28 05:58:48;;;;;;;0.10;0.10;;;9.60;99.90;;;;;;5082229;28;21207;-74
2021/10/28 06:01:14;;;;;;;0.73;0.70;;;9.50;99.90;;;;;;5083831;28;20024;-74
2021/10/28 06:03:40;;;;;;;0.52;0.45;;;9.50;99.90;;;;;;5086338;28;20038;-74
2021/10/28 06:06:05;;;;;;;0.10;0.10;;;9.50;99.90;;;;;;5087505;28;20032;-73
2021/10/28 06:08:32;;;;;;;0.98;0.98;;;9.50;99.90;;;;;;5086777;28;20020;-74
2021/10/28 06:10:57;;;;;;;1.55;1.30;;;9.50;99.90;;;;;;5086679;28;20020;-73
2021/10/28 06:13:24;;;;;;;1.90;1.23;;;9.50;99.90;;;;;;5085464;28;20820;-73
2021/10/28 06:15:50;;;;;;;0.25;0.22;;;9.60;99.90;;;;;;5084641;28;20039;-74
2021/10/28 06:20:41;;;;;;;0.77;0.77;;;9.70;99.90;;;;;;5086444;28;20028;-74
2021/10/28 06:23:06;;;;;;;1.10;0.73;;;9.70;99.90;;;;;;5083567;28;20581;-74
2021/10/28 06:25:32;;;;;;;0.98;0.90;;;9.70;99.90;;;;;;5084540;28;20093;-74
2021/10/28 06:27:58;;;;;;;0.40;0.40;;;9.70;99.90;;;;;;5084778;28;20107;-74
2021/10/28 06:30:24;;;;;;;0.70;0.70;;;9.70;99.90;;;;;;5085185;28;20719;-74
2021/10/28 06:33:04;;;;;;;0.08;0.08;;;9.70;99.90;;;;;;5085540;28;20506;-74
2021/10/28 06:35:30;;;;;;;0.35;0.35;;;9.70;99.90;;;;;;5079074;28;20028;-76
2021/10/28 06:37:56;;;;;;;0.95;0.95;;;9.80;99.90;;;;;;5074584;28;20016;-72
2021/10/28 06:40:24;;;;;;;0.38;0.38;;;9.80;99.90;;;;;;5075152;28;20530;-72
2021/10/28 06:42:49;;;;;;;0.60;0.60;;;9.80;99.90;;;;;;5078229;28;20035;-72
2021/10/28 06:45:16;;;;;;;0.32;0.32;;;9.80;99.90;;;;;;5080632;28;20028;-71
2021/10/28 06:47:42;;;;;;;0.32;0.32;;;9.70;99.90;;;;;;5076908;28;20035;-75
2021/10/28 06:50:12;;;;;;;0.47;0.47;;;9.80;99.90;;;;;;5084538;28;20020;-72
2021/10/28 06:52:50;;;;;;;0.75;0.47;;;9.90;99.90;;;;;;5071286;28;20029;-72
2021/10/28 07:03:32;;;;;;;0.65;0.52;;;10.10;99.90;;;;;;5077245;28;20031;-71
2021/10/28 07:06:04;;;;;;;1.30;1.20;;;10.10;99.90;;;;;;5085558;28;20025;-72
2021/10/28 07:08:31;;;;;;;1.63;1.38;;;10.20;99.90;;;;;;5087407;28;20023;-71
2021/10/28 07:10:59;;;;;;;0.75;0.75;;;10.20;99.90;;;;;;5077142;28;20036;-71
2021/10/28 07:13:26;;;;;;;0.45;0.40;;;10.20;99.90;;;;;;5084980;28;20089;-71
2021/10/28 07:16:13;;;;;;;6.40;1.08;;;10.30;99.90;;;;;;5078235;28;20612;-72
2021/10/28 07:18:54;;;;;;;0.73;0.73;;;10.30;99.90;;;;;;5079168;28;20044;-71
2021/10/28 07:21:49;;;;;;;0.28;0.28;;;10.40;99.90;;;;;;5073163;28;20035;-71
2021/10/28 07:26:53;;;;;;;2.15;1.10;;;10.40;99.90;;;;;;5074996;28;20063;-71
2021/10/28 07:32:29;;;;;;;6.45;1.13;;;10.50;99.90;;;;;;5076564;28;20127;-72
2021/10/28 07:35:06;;;;;;;0.80;0.80;;;10.50;99.90;;;;;;5078422;28;20031;-71
2021/10/28 07:57:09;;;;;;;1.25;1.13;;;10.80;99.90;;;;;;5084512;28;20717;-74
2021/10/28 07:59:59;;;;;;;0.10;0.10;;;10.80;99.90;;;;;;5083971;28;20691;-74
2021/10/28 08:13:29;;;;;;;3.97;3.10;;;11.00;99.90;;;;;;5072482;28;20033;-74
2021/10/28 08:13:34;;;;;;;0.57;0.57;;;11.10;99.90;;;;;;5081208;28;20043;-74
2021/10/28 08:18:45;;;;;;;0.80;0.80;;;11.30;99.90;;;;;;5084460;28;20064;-75
2021/10/28 08:23:44;;;;;;;2.55;1.10;;;11.40;99.90;;;;;;5082565;28;20024;-75
2021/10/28 08:28:58;;;;;;;0.47;0.45;;;11.50;99.90;;;;;;5075601;28;20085;-76
2021/10/28 08:31:26;;;;;;;0.85;0.68;;;11.70;99.90;;;;;;5075361;28;20035;-72
2021/10/28 08:33:51;;;;;;;0.85;0.85;;;11.70;99.90;;;;;;5069570;28;20221;-73
2021/10/28 08:36:26;;;;;;;1.33;0.85;;;11.80;99.90;;;;;;5078141;28;20055;-71
2021/10/28 08:38:52;;;;;;;1.65;0.85;;;11.90;99.90;;;;;;5073791;28;20476;-72
2021/10/28 08:41:20;;;;;;;0.85;0.85;;;11.90;99.90;;;;;;5080554;28;20028;-73
2021/10/28 08:43:47;;;;;;;6.43;1.27;;;12.00;99.90;;;;;;5068877;28;20054;-71
2021/10/28 08:46:14;;;;;;;1.25;1.13;;;12.10;99.90;;;;;;5074690;28;20645;-72
2021/10/28 08:48:41;;;;;;;0.65;0.65;;;12.10;99.90;;;;;;5074669;28;20024;-70
2021/10/28 08:51:23;;;;;;;0.30;0.30;;;12.10;99.90;;;;;;5077510;28;20028;-71
2021/10/28 08:53:59;;;;;;;0.17;0.17;;;12.20;99.90;;;;;;5093303;28;20024;-71
2021/10/28 08:56:48;;;;;;;1.85;0.98;;;12.30;99.90;;;;;;5083716;28;20016;-71
2021/10/28 09:24:32;;;;;;;0.47;0.47;;;13.00;99.90;;;;;;5081788;28;20452;-74
2021/10/28 09:27:13;;;;;;;6.88;1.83;;;13.10;99.90;;;;;;5081860;28;20033;-74
2021/10/28 09:29:46;;;;;;;0.90;0.85;;;13.10;99.90;;;;;;5077503;28;20052;-73
2021/10/28 09:32:36;;;;;;;0.57;0.47;;;13.20;99.90;;;;;;5077324;28;20040;-73
2021/10/28 09:35:14;;;;;;;1.35;0.60;;;13.30;99.90;;;;;;5082765;28;20394;-73
2021/10/28 09:46:37;;;;;;;;;;;13.70;99.90;;;;;;5087276;28;20028;-74
2021/10/28 09:51:50;;;;;;;1.05;0.90;;;13.90;99.90;;;;;;5087122;28;20107;-73
2021/10/28 10:00:38;;;;;;;1.70;1.00;;;14.20;99.90;;;;;;4990271;28;20077;-72
2021/10/28 10:03:21;;;;;;;1.00;0.88;;;14.30;99.90;;;;;;4993959;28;20045;-72
2021/10/28 10:05:54;;;;;;;0.22;0.22;;;14.30;99.90;;;;;;4987149;28;20084;-71
2021/10/28 10:08:34;;;;;;;1.55;0.75;;;14.40;99.90;;;;;;5023188;28;20028;-71
2021/10/28 10:11:00;;;;;;;1.10;1.00;;;14.50;99.90;;;;;;5075385;28;20040;-72
2021/10/28 10:13:27;;;;;;;9.85;1.65;;;14.50;99.90;;;;;;5086082;28;20059;-77
2021/10/28 10:16:01;;;;;;;0.80;0.80;;;14.60;99.90;;;;;;5081266;28;20032;-76
2021/10/28 10:18:29;;;;;;;2.38;1.77;;;14.70;99.90;;;;;;5079605;28;20080;-76
2021/10/28 10:21:11;;;;;;;2.13;1.10;;;14.80;99.90;;;;;;5084402;28;20028;-75
2021/10/28 11:03:07;;;;;;;1.70;1.60;;;15.20;99.90;;;;;;5051080;28;20119;-70
2021/10/28 11:22:56;;;;;;;0.52;0.52;;;18.10;88.50;;;;;;5082433;28;20024;-73
2021/10/28 11:28:23;;;;;;;1.23;1.00;;;18.70;84.30;;;;;;5080243;28;20476;-73
2021/10/28 12:14:08;;;;;;;;;;;19.00;78.70;;;;;;5082410;28;20032;-74
2021/10/28 12:16:38;;;;;;;0.70;0.70;;;19.00;78.00;;;;;;5080162;28;20066;-73
2021/10/28 12:45:17;;;;;;;0.60;0.60;;;19.10;72.80;;;;;;5085677;28;20101;-73
2021/10/28 12:50:40;;;;;;;2.05;1.27;;;20.00;70.20;;;;;;5085221;28;20107;-74
2021/10/28 12:56:39;;;;;;;0.40;0.32;;;21.40;66.40;;;;;;5073385;28;20040;-72
2021/10/28 13:27:53;;;;;;;0.80;0.80;;;23.30;56.70;;;;;;5070957;28;20027;-72
2021/10/28 13:35:37;;;;;;;0.60;0.45;;;20.40;63.70;;;;;;5074576;28;20051;-71
2021/10/28 13:38:08;;;;;;;0.40;0.40;;;20.00;64.00;;;;;;5084453;28;20043;-70
2021/10/28 13:49:04;;;;;;;44.22;3.65;;;19.60;68.00;;;;;;5084284;28;20085;-70
2021/10/28 13:51:42;;;;;;;2.63;1.20;;;19.70;69.50;;;;;;5082438;28;20043;-70
2021/10/28 13:56:53;;;;;;;0.98;0.93;;;19.80;68.60;;;;;;5084981;28;20024;-70
2021/10/28 14:35:25;;;;;;;0.00;0.00;;;18.00;74.10;;;;;;5083406;28;20084;-70
2021/10/28 15:34:56;;;;;;;2.05;1.30;;;15.20;91.10;;;;;;5079624;28;19938;-71
2021/10/28 15:53:59;;;;;;;0.55;0.10;;;14.30;94.20;;;;;;5083154;28;20388;-72
2021/10/28 15:59:29;;;;;;;0.30;0.30;;;14.10;94.80;;;;;;5084741;28;20055;-73
2021/10/28 16:23:50;;;;;;;1.30;0.70;;;13.20;98.20;;;;;;5076556;28;20031;-73
2021/10/28 16:26:16;;;;;;;2.10;1.25;;;13.10;98.50;;;;;;5083885;28;20037;-73
2021/10/28 16:28:42;;;;;;;1.08;0.75;;;13.00;98.70;;;;;;5079795;28;20114;-72
2021/10/28 16:31:08;;;;;;;1.13;1.02;;;13.00;98.90;;;;;;5082470;28;20018;-73
2021/10/28 16:33:33;;;;;;;1.25;0.90;;;12.90;99.40;;;;;;5082150;28;20043;-74
2021/10/28 16:35:59;;;;;;;1.25;0.57;;;12.90;99.70;;;;;;5079114;28;20032;-73
2021/10/28 16:38:26;;;;;;;0.40;0.40;;;12.80;99.90;;;;;;5077574;28;20562;-73
2021/10/28 16:40:52;;;;;;;0.65;0.65;;;12.80;99.90;;;;;;5075048;28;20036;-72
2021/10/28 16:43:18;;;;;;;0.70;0.70;;;12.70;99.90;;;;;;5085198;28;20031;-73
2021/10/28 16:45:47;;;;;;;0.63;0.63;;;12.60;99.90;;;;;;5086686;28;20031;-73
2021/10/28 16:48:16;;;;;;;0.50;0.50;;;12.60;99.90;;;;;;5085979;28;20630;-72
2021/10/28 16:50:43;;;;;;;0.88;0.85;;;12.50;99.90;;;;;;5091042;28;20034;-73
2021/10/28 16:53:09;;;;;;;0.38;0.38;;;12.50;99.90;;;;;;5097348;28;20108;-73
2021/10/28 16:55:35;;;;;;;0.55;0.55;;;12.50;99.90;;;;;;5088910;28;20028;-72
2021/10/28 16:58:01;;;;;;;1.60;1.42;;;12.40;99.90;;;;;;5089122;28;20481;-72
2021/10/28 17:00:27;;;;;;;0.45;0.45;;;12.40;99.90;;;;;;5091150;28;20095;-72
2021/10/28 17:02:53;;;;;;;0.30;0.30;;;12.40;99.90;;;;;;5075795;28;20536;-72
2021/10/28 17:05:19;;;;;;;1.65;0.73;;;12.30;99.90;;;;;;5084198;28;20024;-71
2021/10/28 17:07:45;;;;;;;3.55;1.13;;;12.30;99.90;;;;;;5067815;28;20111;-72
2021/10/28 17:10:11;;;;;;;1.65;1.55;;;12.30;99.90;;;;;;5092247;28;20044;-71
2021/10/28 17:12:37;;;;;;;0.20;0.20;;;12.30;99.90;;;;;;5081984;28;20297;-71
2021/10/28 17:15:07;;;;;;;0.68;0.50;;;12.20;99.90;;;;;;5079735;28;20035;-71
2021/10/28 17:17:32;;;;;;;0.25;0.25;;;12.20;99.90;;;;;;5076417;28;20047;-72
2021/10/28 17:20:04;;;;;;;1.60;1.38;;;12.20;99.90;;;;;;5075981;28;20478;-72
2021/10/28 17:22:30;;;;;;;2.20;0.80;;;12.20;99.90;;;;;;5087811;28;20027;-72
2021/10/28 17:24:56;;;;;;;1.13;0.95;;;12.20;99.90;;;;;;5085743;28;20097;-72
2021/10/28 17:27:21;;;;;;;1.00;0.95;;;12.10;99.90;;;;;;5080812;28;20020;-72
2021/10/28 17:29:47;;;;;;;1.95;1.27;;;12.10;99.90;;;;;;5089831;28;20630;-72
2021/10/28 17:32:12;;;;;;;1.38;1.30;;;12.00;99.90;;;;;;5088148;28;20474;-71
2021/10/28 17:34:38;;;;;;;1.08;0.52;;;12.00;99.90;;;;;;5086393;28;20063;-72
2021/10/28 17:37:04;;;;;;;0.35;0.35;;;12.00;99.90;;;;;;5085055;28;20028;-72
2021/10/28 17:39:30;;;;;;;1.55;0.93;;;11.90;99.90;;;;;;5096750;28;20036;-71
2021/10/28 17:41:58;;;;;;;1.08;1.08;;;11.90;99.90;;;;;;5093520;28;20036;-71
2021/10/28 17:44:34;;;;;;;2.17;1.85;;;11.90;99.90;;;;;;5078246;28;20039;-70
2021/10/28 17:47:00;;;;;;;1.40;1.30;;;11.90;99.90;;;;;;5081792;28;20029;-71
2021/10/28 17:49:25;;;;;;;0.98;0.98;;;11.90;99.90;;;;;;5082198;28;20425;-71
2021/10/28 17:51:51;;;;;;;1.70;1.60;;;11.90;99.90;;;;;;5073401;28;20089;-70
2021/10/28 17:54:16;;;;;;;1.17;0.95;;;11.90;99.90;;;;;;5067117;28;20073;-71
2021/10/28 17:56:42;;;;;;;1.17;1.05;;;11.90;99.90;;;;;;5086182;28;20078;-71
2021/10/28 17:59:08;;;;;;;0.40;0.40;;;12.00;99.90;;;;;;5078248;28;20024;-71
2021/10/28 18:01:35;;;;;;;0.85;0.85;;;12.00;99.90;;;;;;5079531;28;20086;-71
2021/10/28 18:04:02;;;;;;;0.65;0.65;;;12.10;99.90;;;;;;5085282;28;20497;-71
2021/10/28 18:06:29;;;;;;;1.70;1.33;;;12.10;99.90;;;;;;5084026;28;20017;-70
2021/10/28 18:08:55;;;;;;;0.65;0.63;;;12.10;99.90;;;;;;5071748;28;20056;-70
2021/10/28 18:11:21;;;;;;;0.77;0.77;;;12.20;99.90;;;;;;5079945;28;20024;-70
2021/10/28 18:13:48;;;;;;;0.52;0.52;;;12.20;99.90;;;;;;5082038;28;20051;-71
2021/10/28 18:16:13;;;;;;;2.30;1.05;;;12.20;99.90;;;;;;5083927;28;20031;-70
2021/10/28 18:18:39;;;;;;;0.70;0.70;;;12.30;99.90;;;;;;5086940;28;20024;-69
2021/10/28 18:21:05;;;;;;;0.88;0.52;;;12.30;99.90;;;;;;5082666;28;20438;-70
2021/10/28 18:23:33;;;;;;;3.50;1.25;;;12.30;99.90;;;;;;5086389;28;20047;-70
2021/10/28 18:25:58;;;;;;;5.80;1.35;;;12.30;99.90;;;;;;5067647;28;20067;-70
2021/10/28 18:28:25;;;;;;;1.33;1.08;;;12.30;99.90;;;;;;5086223;28;20021;-70
2021/10/28 18:30:50;;;;;;;0.85;0.80;;;12.30;99.90;;;;;;5079154;28;20108;-70
2021/10/28 18:33:16;;;;;;;1.38;1.27;;;12.30;99.90;;;;;;5086930;28;20111;-70
2021/10/28 18:35:41;;;;;;;0.32;0.32;;;12.30;99.90;;;;;;5082541;28;20107;-70
2021/10/28 18:38:10;;;;;;;0.55;0.55;;;12.30;99.90;;;;;;5075416;28;20028;-70
2021/10/28 18:40:36;;;;;;;0.80;0.80;;;12.30;99.90;;;;;;5081309;28;20016;-70
2021/10/28 18:43:03;;;;;;;0.35;0.35;;;12.30;99.90;;;;;;5073723;28;20031;-69
2021/10/28 18:45:29;;;;;;;0.75;0.75;;;12.30;99.90;;;;;;5080493;28;20029;-70
2021/10/28 18:47:55;;;;;;;3.53;0.65;;;12.30;99.90;;;;;;5074934;28;20809;-70
2021/10/28 18:50:21;;;;;;;3.10;2.05;;;12.30;99.90;;;;;;5076456;28;20032;-70
2021/10/28 18:52:46;;;;;;;0.43;0.43;;;12.30;99.90;;;;;;5082185;28;20016;-70
2021/10/28 18:55:12;;;;;;;0.98;0.50;;;12.30;99.90;;;;;;5063791;28;20520;-70
2021/10/28 18:57:37;;;;;;;1.15;0.88;;;12.30;99.90;;;;;;5079488;28;20040;-70
2021/10/28 19:00:06;;;;;;;0.85;0.85;;;12.30;99.90;;;;;;5077945;28;20052;-70
2021/10/28 19:02:33;;;;;;;1.42;0.65;;;12.20;99.90;;;;;;5067500;28;20402;-69
2021/10/28 19:05:01;;;;;;;0.75;0.75;;;12.20;99.90;;;;;;5087214;28;20174;-70
2021/10/28 19:07:28;;;;;;;1.05;0.93;;;12.20;99.90;;;;;;5088195;28;20066;-70
2021/10/28 19:09:56;;;;;;;0.75;0.75;;;12.10;99.90;;;;;;5085007;28;20028;-71
2021/10/28 19:12:23;;;;;;;1.95;1.67;;;12.10;99.90;;;;;;5084213;28;20035;-71
2021/10/28 19:14:48;;;;;;;1.38;1.27;;;12.00;99.90;;;;;;5082583;28;20028;-71
2021/10/28 19:17:15;;;;;;;0.60;0.60;;;12.00;99.90;;;;;;5089952;28;20038;-70
2021/10/28 19:19:41;;;;;;;1.15;1.15;;;11.90;99.90;;;;;;5084625;28;20425;-71
2021/10/28 19:22:08;;;;;;;0.52;0.50;;;11.80;99.90;;;;;;5077200;28;20024;-69
2021/10/28 19:24:34;;;;;;;0.98;0.85;;;11.80;99.90;;;;;;5077341;28;20063;-70
2021/10/28 19:27:00;;;;;;;0.90;0.32;;;11.80;99.90;;;;;;5083722;28;20036;-70
2021/10/28 19:29:26;;;;;;;0.80;0.75;;;11.70;99.90;;;;;;5078842;28;20035;-71
2021/10/28 19:34:50;;;;;;;0.32;0.32;;;11.60;99.90;;;;;;5046027;28;20037;-71
2021/10/28 19:37:31;;;;;;;2.80;1.63;;;11.50;99.90;;;;;;5077281;28;20047;-71
2021/10/28 19:40:12;;;;;;;1.02;1.02;;;11.40;99.90;;;;;;5084969;28;20494;-70
2021/10/28 19:45:06;;;;;;;1.48;1.02;;;11.40;99.90;;;;;;5070375;28;20313;-70
2021/10/28 19:45:33;;;;;;;0.60;0.57;;;11.30;99.90;;;;;;5084856;28;20127;-70
2021/10/28 19:47:59;;;;;;;3.10;2.25;;;11.30;99.90;;;;;;5072939;28;20032;-70
2021/10/28 19:50:25;;;;;;;0.73;0.70;;;11.30;99.90;;;;;;5084513;28;20360;-70
2021/10/28 19:52:51;;;;;;;3.10;0.90;;;11.20;99.90;;;;;;5064162;28;20119;-71
2021/10/28 19:55:19;;;;;;;0.47;0.47;;;11.20;99.90;;;;;;5063199;28;20107;-71
2021/10/28 19:57:50;;;;;;;0.65;0.65;;;11.20;99.90;;;;;;5079980;28;20035;-70
2021/10/28 20:00:32;;;;;;;5.50;0.68;;;11.20;99.90;;;;;;5087597;28;20028;-70
2021/10/28 20:08:16;;;;;;;1.02;0.98;;;11.30;99.90;;;;;;5074555;28;20024;-70
2021/10/28 20:13:51;;;;;;;1.00;0.85;;;11.40;99.90;;;;;;5084263;28;20082;-70
2021/10/28 20:21:48;;;;;;;0.60;0.60;;;11.40;99.90;;;;;;5085726;28;20038;-71
2021/10/28 20:24:16;;;;;;;1.35;1.08;;;11.40;99.90;;;;;;5082182;28;20132;-72
2021/10/28 20:26:42;;;;;;;2.30;1.38;;;11.40;99.90;;;;;;5056178;28;20049;-73
2021/10/28 20:29:09;;;;;;;9.15;1.35;;;11.40;99.90;;;;;;5057618;28;20047;-74
2021/10/28 20:31:34;;;;;;;0.17;0.17;;;11.40;99.90;;;;;;5058740;28;20495;-73
2021/10/28 20:39:20;;;;;;;2.20;0.60;;;11.40;99.90;;;;;;5055339;28;20509;-72
2021/10/28 20:41:46;;;;;;;3.03;0.60;;;11.40;99.90;;;;;;5055183;28;20799;-71
2021/10/28 20:44:12;;;;;;;5.05;2.58;;;11.40;99.90;;;;;;5062059;28;20035;-72
2021/10/28 20:46:38;;;;;;;0.30;0.25;;;11.40;99.90;;;;;;5051479;28;20029;-72
2021/10/28 20:49:04;;;;;;;0.43;0.43;;;11.40;99.90;;;;;;5061044;28;20100;-73
2021/10/28 20:51:30;;;;;;;0.50;0.50;;;11.50;99.90;;;;;;5058094;28;20127;-71
2021/10/28 20:53:56;;;;;;;1.42;0.88;;;11.40;99.90;;;;;;5048674;28;20229;-72
2021/10/28 20:56:25;;;;;;;0.40;0.40;;;11.40;99.90;;;;;;5053461;28;20056;-72
2021/10/28 20:58:51;;;;;;;0.60;0.60;;;11.50;99.50;;;;;;5059981;28;20039;-72
2021/10/28 21:01:16;;;;;;;0.50;0.45;;;11.50;99.60;;;;;;5058658;28;20028;-72
2021/10/28 21:03:44;;;;;;;0.40;0.40;;;11.50;99.40;;;;;;5055455;28;20025;-72
2021/10/28 21:06:09;;;;;;;0.32;0.32;;;11.50;99.40;;;;;;5064751;28;20012;-73